createdAt,value
2023-05-22T00:03:36.797Z,12.00
2023-05-22T00:08:39.632Z,12.20
2023-05-22T00:13:42.516Z,11.40
2023-05-22T00:18:46.646Z,12.20
2023-05-22T00:23:49.424Z,11.60
2023-05-22T00:28:52.240Z,13.00
2023-05-22T00:33:56.447Z,12.40
2023-05-22T00:38:59.650Z,11.00
2023-05-22T00:44:03.331Z,12.20
2023-05-22T00:49:07.633Z,12.00
2023-05-22T00:54:10.500Z,12.40
2023-05-22T00:59:13.311Z,12.00
2023-05-22T01:04:18.738Z,12.00
2023-05-22T01:09:21.687Z,12.00
2023-05-22T01:14:28.664Z,12.00
2023-05-22T01:19:47.439Z,11.00
2023-05-22T01:24:58.288Z,12.00
2023-05-22T01:30:11.294Z,11.00
2023-05-22T01:35:16.479Z,12.00
2023-05-22T01:40:19.741Z,11.00
2023-05-22T01:45:22.874Z,11.60
2023-05-22T01:50:27.959Z,10.80
2023-05-22T01:55:35.840Z,11.00
2023-05-22T02:00:38.796Z,11.20
2023-05-22T02:05:43.113Z,11.00
2023-05-22T02:10:45.907Z,11.20
2023-05-22T02:15:49.147Z,11.60
2023-05-22T02:20:53.671Z,11.20
2023-05-22T02:25:56.673Z,11.00
2023-05-22T02:30:59.547Z,10.00
2023-05-22T02:36:04.219Z,11.00
2023-05-22T02:41:08.050Z,10.00
2023-05-22T02:46:10.978Z,10.00
2023-05-22T02:51:15.153Z,11.00
2023-05-22T02:56:18.815Z,10.60
2023-05-22T03:01:22.189Z,10.40
2023-05-22T03:06:26.592Z,10.60
2023-05-22T03:11:30.047Z,10.00
2023-05-22T03:16:34.439Z,10.40
2023-05-22T03:21:38.835Z,11.00
2023-05-22T03:26:41.873Z,10.00
2023-05-22T03:31:48.906Z,10.00
2023-05-22T03:36:53.341Z,13.40
2023-05-22T03:41:57.017Z,17.60
2023-05-22T03:47:01.074Z,18.00
2023-05-22T03:52:05.954Z,18.50
2023-05-22T03:57:08.967Z,19.00
2023-05-22T04:02:13.089Z,18.33
2023-05-22T04:07:18.478Z,20.00
2023-05-22T04:12:21.563Z,20.25
2023-05-22T04:17:27.296Z,19.25
2023-05-22T04:22:31.516Z,22.00
2023-05-22T04:27:35.535Z,18.75
2023-05-22T04:32:38.465Z,19.75
2023-05-22T04:37:45.529Z,20.00
2023-05-22T04:42:48.481Z,21.50
2023-05-22T04:47:52.484Z,19.50
2023-05-22T04:52:59.535Z,18.75
2023-05-22T04:58:02.862Z,20.75
2023-05-22T05:03:08.433Z,21.00
2023-05-22T05:08:12.791Z,20.25
2023-05-22T05:13:16.137Z,21.00
2023-05-22T05:18:21.779Z,21.00
2023-05-22T05:23:26.084Z,20.50
2023-05-22T05:28:30.547Z,19.00
2023-05-22T05:33:33.707Z,19.75
2023-05-22T05:39:03.858Z,20.25
2023-05-22T05:44:10.124Z,17.00
2023-05-22T05:49:13.988Z,18.50
2023-05-22T05:54:19.813Z,19.25
2023-05-22T05:59:24.409Z,17.50
2023-05-22T06:04:56.189Z,17.75
2023-05-22T06:10:01.142Z,17.50
2023-05-22T06:15:13.904Z,19.50
2023-05-22T06:20:16.821Z,17.00
2023-05-22T06:25:21.261Z,17.75
2023-05-22T06:30:43.517Z,17.50
2023-05-22T06:35:51.083Z,18.00
2023-05-22T06:40:56.792Z,15.60
2023-05-22T06:46:02.678Z,15.25
2023-05-22T06:51:15.626Z,17.00
2023-05-22T06:56:20.734Z,17.00
2023-05-22T07:01:44.207Z,17.00
2023-05-22T07:06:50.776Z,17.20
2023-05-22T07:11:56.021Z,15.80
2023-05-22T07:16:59.159Z,15.80
2023-05-22T07:22:06.956Z,16.00
2023-05-22T07:27:14.293Z,14.80
2023-05-22T07:32:17.331Z,14.40
2023-05-22T07:37:22.198Z,15.00
2023-05-22T07:42:28.104Z,14.20
2023-05-22T07:47:32.126Z,16.00
2023-05-22T07:52:35.756Z,14.00
2023-05-22T07:57:41.593Z,14.40
2023-05-22T08:02:53.724Z,14.40
2023-05-22T08:07:56.876Z,14.20
2023-05-22T08:13:05.982Z,14.80
2023-05-22T08:18:09.287Z,15.00
2023-05-22T08:23:12.681Z,14.50
2023-05-22T08:28:16.981Z,14.60
2023-05-22T08:33:20.049Z,14.60
2023-05-22T08:38:23.138Z,14.00
2023-05-22T08:43:28.512Z,14.00
2023-05-22T08:48:33.796Z,14.60
2023-05-22T08:53:37.452Z,16.40
2023-05-22T08:58:41.791Z,14.00
2023-05-22T09:03:44.825Z,14.80
2023-05-22T09:08:48.525Z,14.40
2023-05-22T09:13:54.191Z,13.40
2023-05-22T09:18:57.305Z,13.80
2023-05-22T09:24:03.139Z,13.00
2023-05-22T09:29:08.061Z,14.00
2023-05-22T09:34:11.378Z,13.60
2023-05-22T09:39:14.356Z,12.60
2023-05-22T09:44:18.695Z,16.00
2023-05-22T09:49:21.567Z,13.80
2023-05-22T09:54:24.578Z,13.40
2023-05-22T09:59:30.108Z,11.00
2023-05-22T10:04:34.066Z,13.00
2023-05-22T10:09:37.038Z,14.00
2023-05-22T10:14:41.377Z,12.80
2023-05-22T10:19:46.047Z,13.80
2023-05-22T10:24:49.700Z,15.00
2023-05-22T10:29:55.911Z,14.40
2023-05-22T10:35:03.269Z,14.00
2023-05-22T10:40:08.946Z,13.60
2023-05-22T10:45:13.634Z,13.80
2023-05-22T10:50:18.688Z,13.40
2023-05-22T10:55:23.042Z,14.00
2023-05-22T11:00:27.580Z,12.20
2023-05-22T11:05:37.471Z,14.00
2023-05-22T11:10:56.207Z,13.00
2023-05-22T11:16:00.565Z,12.80
2023-05-22T11:21:04.550Z,13.40
2023-05-22T11:26:26.442Z,13.20
2023-05-22T11:31:32.224Z,13.40
2023-05-22T11:36:35.196Z,14.00
2023-05-22T11:41:38.227Z,12.40
2023-05-22T11:46:42.532Z,11.80
2023-05-22T11:51:45.658Z,12.00
2023-05-22T11:56:48.657Z,11.40
2023-05-22T12:01:53.089Z,13.00
2023-05-22T12:06:56.633Z,12.60
2023-05-22T12:11:59.800Z,11.40
2023-05-22T12:17:05.169Z,11.40
2023-05-22T12:22:08.960Z,11.00
2023-05-22T12:27:12.241Z,11.00
2023-05-22T12:32:18.426Z,10.20
2023-05-22T12:37:21.784Z,10.40
2023-05-22T12:42:24.983Z,10.00
2023-05-22T12:47:30.146Z,10.20
2023-05-22T12:52:33.154Z,11.80
2023-05-22T12:57:35.984Z,10.80
2023-05-22T13:02:40.572Z,11.00
2023-05-22T13:07:43.701Z,10.00
2023-05-22T13:12:48.433Z,8.00
2023-05-22T13:17:52.744Z,8.80
2023-05-22T13:22:55.677Z,11.00
2023-05-22T13:27:58.767Z,10.20
2023-05-22T13:33:03.149Z,10.00
2023-05-22T13:38:06.294Z,10.00
2023-05-22T13:43:09.368Z,8.00
2023-05-22T13:48:14.333Z,9.00
2023-05-22T13:53:17.578Z,11.00
2023-05-22T13:58:20.675Z,11.60
2023-05-22T14:03:25.096Z,10.00
2023-05-22T14:08:29.096Z,8.80
2023-05-22T14:13:32.354Z,10.00
2023-05-22T14:18:36.563Z,10.00
2023-05-22T14:23:39.408Z,10.40
2023-05-22T14:28:42.255Z,10.00
2023-05-22T14:33:46.594Z,10.40
2023-05-22T14:38:49.511Z,8.00
2023-05-22T14:43:52.408Z,8.00
2023-05-22T14:48:56.580Z,10.00
2023-05-22T14:53:59.450Z,7.00
2023-05-22T14:59:02.376Z,8.00
2023-05-22T15:04:08.018Z,8.00
2023-05-22T15:09:11.727Z,8.60
2023-05-22T15:14:15.227Z,8.00
2023-05-22T15:19:19.703Z,7.80
2023-05-22T15:24:22.858Z,7.60
2023-05-22T15:29:25.796Z,8.20
2023-05-22T15:34:30.000Z,7.00
2023-05-22T15:39:32.945Z,7.80
2023-05-22T15:44:36.015Z,8.00
2023-05-22T15:49:40.309Z,8.40
2023-05-22T15:54:43.205Z,7.80
2023-05-22T15:59:47.430Z,7.40
2023-05-22T16:04:52.018Z,8.00
2023-05-22T16:09:55.134Z,8.00
2023-05-22T16:15:00.596Z,10.40
2023-05-22T16:20:07.054Z,10.20
2023-05-22T16:25:11.265Z,12.00
2023-05-22T16:30:17.108Z,11.00
2023-05-22T16:35:22.171Z,9.20
2023-05-22T16:40:25.164Z,10.20
2023-05-22T16:45:28.161Z,10.40
2023-05-22T16:50:32.668Z,8.80
2023-05-22T16:55:35.704Z,9.80
2023-05-22T17:00:40.506Z,10.00
2023-05-22T17:05:45.167Z,10.00
2023-05-22T17:10:48.161Z,9.60
2023-05-22T17:15:51.289Z,9.00
2023-05-22T17:20:55.724Z,9.40
2023-05-22T17:25:58.543Z,9.80
2023-05-22T17:31:02.176Z,8.80
2023-05-22T17:36:07.834Z,8.80
2023-05-22T17:41:11.013Z,8.40
2023-05-22T17:46:14.540Z,9.80
2023-05-22T17:51:18.825Z,8.40
2023-05-22T17:56:22.544Z,10.00
2023-05-22T18:01:27.123Z,9.80
2023-05-22T18:06:31.868Z,7.20
2023-05-22T18:11:34.968Z,8.00
2023-05-22T18:16:37.951Z,8.00
2023-05-22T18:21:43.096Z,8.00
2023-05-22T18:26:45.987Z,8.00
2023-05-22T18:31:48.917Z,7.00
2023-05-22T18:36:53.853Z,7.60
2023-05-22T18:41:58.576Z,7.00
2023-05-22T18:47:01.767Z,7.00
2023-05-22T18:52:06.413Z,7.60
2023-05-22T18:57:09.301Z,7.00
2023-05-22T19:02:12.116Z,7.80
2023-05-22T19:07:16.550Z,7.40
2023-05-22T19:12:19.535Z,7.60
2023-05-22T19:17:22.436Z,8.00
2023-05-22T19:22:26.632Z,8.00
2023-05-22T19:27:29.477Z,7.00
2023-05-22T19:32:32.452Z,7.00
2023-05-22T19:37:38.533Z,7.60
2023-05-22T19:42:42.440Z,6.80
2023-05-22T19:47:45.471Z,7.80
2023-05-22T19:52:49.720Z,6.80
2023-05-22T19:57:52.538Z,6.80
2023-05-22T20:02:55.614Z,6.20
2023-05-22T20:08:00.290Z,8.20
2023-05-22T20:13:04.834Z,6.60
2023-05-22T20:18:08.524Z,6.80
2023-05-22T20:23:12.726Z,7.00
2023-05-22T20:28:15.966Z,7.00
2023-05-22T20:33:19.419Z,6.80
2023-05-22T20:38:23.752Z,6.20
2023-05-22T20:43:30.732Z,7.00
2023-05-22T20:48:33.974Z,6.00
2023-05-22T20:53:38.172Z,7.00
2023-05-22T20:58:41.120Z,7.00
2023-05-22T21:03:44.147Z,6.20
2023-05-22T21:08:48.469Z,7.00
2023-05-22T21:13:51.532Z,6.20
2023-05-22T21:18:54.366Z,6.00
2023-05-22T21:23:58.587Z,6.00
2023-05-22T21:29:02.646Z,6.20
2023-05-22T21:34:05.509Z,6.20
2023-05-22T21:39:09.772Z,6.80
2023-05-22T21:44:12.651Z,7.40
2023-05-22T21:49:16.058Z,7.20
2023-05-22T21:54:20.353Z,7.00
2023-05-22T21:59:23.227Z,6.00
2023-05-22T22:04:26.236Z,6.00
2023-05-22T22:09:30.424Z,6.60
2023-05-22T22:14:33.356Z,7.00
2023-05-22T22:19:36.349Z,6.00
2023-05-22T22:24:40.916Z,6.60
2023-05-22T22:29:44.032Z,5.60
2023-05-22T22:34:47.038Z,7.00
2023-05-22T22:39:51.286Z,7.00
2023-05-22T22:44:54.330Z,6.00
2023-05-22T22:49:57.904Z,7.00
2023-05-22T22:55:02.077Z,6.60
2023-05-22T23:00:06.054Z,7.00
2023-05-22T23:05:09.829Z,6.00
2023-05-22T23:10:14.458Z,6.00
2023-05-22T23:15:17.394Z,7.40
2023-05-22T23:20:20.438Z,7.00
2023-05-22T23:25:24.795Z,6.20
2023-05-22T23:30:27.726Z,7.00
2023-05-22T23:35:31.124Z,7.00
2023-05-22T23:40:35.509Z,7.00
2023-05-22T23:45:38.587Z,6.40
2023-05-22T23:50:41.730Z,6.20
2023-05-22T23:55:45.982Z,6.00
